createdAt,value
2022-08-17T00:01:32.744Z,30.10
2022-08-17T00:04:19.401Z,30.80
2022-08-17T00:06:47.580Z,31.33
2022-08-17T00:09:19.374Z,29.13
2022-08-17T00:12:41.694Z,29.95
2022-08-17T00:14:36.127Z,29.67
2022-08-17T00:17:04.751Z,30.40
2022-08-17T00:19:32.927Z,31.70
2022-08-17T00:22:34.789Z,31.42
2022-08-17T00:24:51.915Z,28.95
2022-08-17T00:27:19.948Z,30.10
2022-08-17T00:29:47.541Z,31.45
2022-08-17T00:33:14.210Z,31.83
2022-08-17T00:35:05.056Z,31.58
2022-08-17T00:37:32.639Z,31.75
2022-08-17T00:40:01.616Z,33.22
2022-08-17T00:42:31.288Z,31.83
2022-08-17T00:44:59.055Z,31.10
2022-08-17T00:47:26.797Z,32.83
2022-08-17T00:49:54.325Z,31.23
2022-08-17T00:52:23.663Z,30.92
2022-08-17T00:54:55.173Z,31.00
2022-08-17T00:57:25.638Z,31.93
2022-08-17T01:00:01.813Z,31.50
2022-08-17T01:02:42.060Z,31.48
2022-08-17T01:05:13.453Z,31.52
2022-08-17T01:07:43.126Z,31.95
2022-08-17T01:10:58.196Z,33.13
2022-08-17T01:13:03.167Z,32.97
2022-08-17T01:15:31.404Z,32.35
2022-08-17T01:18:00.203Z,32.13
2022-08-17T01:20:27.847Z,32.92
2022-08-17T01:22:57.042Z,33.50
2022-08-17T01:25:24.801Z,32.63
2022-08-17T01:27:52.366Z,33.05
2022-08-17T01:30:58.620Z,31.75
2022-08-17T01:33:11.387Z,31.08
2022-08-17T01:35:39.033Z,31.63
2022-08-17T01:38:09.482Z,33.88
2022-08-17T01:40:39.150Z,33.10
2022-08-17T01:43:09.508Z,33.60
2022-08-17T01:45:40.212Z,33.67
2022-08-17T01:48:07.780Z,32.80
2022-08-17T01:50:37.930Z,33.38
2022-08-17T01:53:06.502Z,31.70
2022-08-17T01:55:39.404Z,32.78
2022-08-17T01:58:09.693Z,33.67
2022-08-17T02:00:54.529Z,32.63
2022-08-17T02:03:25.904Z,33.00
2022-08-17T02:05:54.306Z,33.10
2022-08-17T02:08:37.246Z,33.40
2022-08-17T02:11:14.629Z,33.80
2022-08-17T02:13:42.363Z,33.87
2022-08-17T02:16:09.931Z,34.03
2022-08-17T02:18:37.514Z,33.55
2022-08-17T02:21:05.805Z,34.67
2022-08-17T02:23:34.726Z,33.65
2022-08-17T02:26:02.361Z,35.93
2022-08-17T02:28:31.472Z,34.35
2022-08-17T02:31:04.209Z,33.58
2022-08-17T02:33:41.652Z,34.05
2022-08-17T02:36:11.461Z,35.15
2022-08-17T02:38:39.424Z,34.67
2022-08-17T02:41:07.286Z,35.38
2022-08-17T02:43:36.361Z,35.38
2022-08-17T02:46:03.900Z,34.35
2022-08-17T02:48:32.124Z,34.63
2022-08-17T02:50:59.959Z,33.30
2022-08-17T02:53:27.603Z,34.40
2022-08-17T02:56:03.075Z,35.00
2022-08-17T02:58:35.753Z,35.13
2022-08-17T03:01:05.280Z,34.17
2022-08-17T03:03:33.007Z,34.33
2022-08-17T03:06:00.575Z,33.97
2022-08-17T03:08:28.329Z,35.20
2022-08-17T03:10:55.994Z,32.72
2022-08-17T03:13:24.140Z,32.70
2022-08-17T03:15:51.997Z,33.63
2022-08-17T03:18:25.402Z,34.08
2022-08-17T03:20:53.676Z,33.97
2022-08-17T03:23:23.834Z,33.78
2022-08-17T03:25:52.948Z,32.65
2022-08-17T03:28:21.256Z,33.47
2022-08-17T03:30:49.027Z,31.83
2022-08-17T03:33:17.026Z,32.65
2022-08-17T03:35:45.992Z,32.42
2022-08-17T03:38:15.081Z,31.42
2022-08-17T03:40:56.853Z,30.43
2022-08-17T03:43:26.076Z,32.75
2022-08-17T03:46:27.724Z,31.42
2022-08-17T03:49:15.786Z,29.52
2022-08-17T03:52:02.198Z,30.58
2022-08-17T03:54:46.983Z,30.50
2022-08-17T03:57:14.526Z,31.25
2022-08-17T03:59:42.069Z,29.50
2022-08-17T04:02:12.250Z,30.40
2022-08-17T04:04:40.159Z,31.85
2022-08-17T04:07:09.133Z,32.33
2022-08-17T04:09:37.581Z,30.75
2022-08-17T04:12:05.664Z,33.20
2022-08-17T04:14:52.178Z,30.98
2022-08-17T04:17:22.126Z,32.83
2022-08-17T04:19:49.657Z,30.77
2022-08-17T04:22:33.179Z,31.20
2022-08-17T04:25:09.351Z,32.55
2022-08-17T04:27:36.970Z,31.48
2022-08-17T04:30:06.955Z,30.85
2022-08-17T04:33:02.239Z,30.10
2022-08-17T04:35:23.094Z,30.85
2022-08-17T04:37:52.318Z,30.73
2022-08-17T04:40:37.963Z,29.90
2022-08-17T04:43:07.067Z,30.42
2022-08-17T04:45:34.943Z,30.63
2022-08-17T04:48:02.527Z,31.23
2022-08-17T04:50:30.084Z,32.42
2022-08-17T04:52:59.221Z,31.95
2022-08-17T04:55:26.990Z,31.33
2022-08-17T04:57:54.580Z,31.57
2022-08-17T05:00:22.251Z,30.65
2022-08-17T05:02:51.145Z,31.25
2022-08-17T05:05:19.834Z,30.67
2022-08-17T05:07:48.434Z,29.48
2022-08-17T05:10:17.434Z,28.97
2022-08-17T05:12:44.978Z,28.30
2022-08-17T05:15:15.938Z,27.42
2022-08-17T05:17:43.538Z,27.65
2022-08-17T05:20:12.105Z,27.55
2022-08-17T05:22:49.378Z,27.40
2022-08-17T05:25:20.662Z,28.25
2022-08-17T05:27:53.175Z,27.27
2022-08-17T05:30:20.896Z,28.15
2022-08-17T05:32:52.218Z,27.75
2022-08-17T05:35:19.917Z,25.83
2022-08-17T05:37:47.468Z,26.95
2022-08-17T05:40:15.177Z,27.20
2022-08-17T05:42:44.124Z,25.73
2022-08-17T05:45:12.166Z,28.17
2022-08-17T05:47:40.545Z,26.60
2022-08-17T05:50:09.491Z,25.55
2022-08-17T05:52:41.107Z,27.08
2022-08-17T05:55:15.391Z,27.23
2022-08-17T05:57:53.784Z,26.23
2022-08-17T06:00:29.980Z,26.00
2022-08-17T06:03:28.327Z,26.45
2022-08-17T06:06:01.294Z,25.83
2022-08-17T06:08:33.236Z,26.00
2022-08-17T06:11:03.620Z,25.77
2022-08-17T06:13:45.673Z,26.37
2022-08-17T06:16:31.161Z,27.30
2022-08-17T06:19:03.516Z,25.13
2022-08-17T06:21:34.500Z,25.65
2022-08-17T06:24:05.434Z,24.83
2022-08-17T06:26:37.381Z,25.27
2022-08-17T06:29:18.633Z,23.75
2022-08-17T06:31:46.599Z,24.33
2022-08-17T06:34:14.321Z,22.92
2022-08-17T06:36:48.674Z,23.60
2022-08-17T06:39:22.159Z,23.03
2022-08-17T06:41:53.906Z,21.50
2022-08-17T06:44:50.310Z,22.58
2022-08-17T06:47:13.681Z,21.83
2022-08-17T06:49:44.318Z,22.00
2022-08-17T06:52:42.447Z,21.63
2022-08-17T06:55:06.160Z,19.85
2022-08-17T06:57:35.155Z,20.52
2022-08-17T07:00:07.417Z,20.35
2022-08-17T07:02:52.154Z,19.95
2022-08-17T07:05:22.455Z,18.57
2022-08-17T07:08:05.686Z,19.65
2022-08-17T07:10:37.440Z,18.58
2022-08-17T07:13:14.594Z,19.58
2022-08-17T07:15:44.044Z,21.00
2022-08-17T07:18:11.818Z,19.40
2022-08-17T07:20:42.791Z,19.30
2022-08-17T07:23:14.837Z,21.95
2022-08-17T07:25:42.393Z,21.48
2022-08-17T07:28:09.932Z,21.80
2022-08-17T07:30:47.027Z,20.87
2022-08-17T07:33:20.262Z,20.55
2022-08-17T07:35:49.858Z,21.15
2022-08-17T07:38:25.205Z,20.70
2022-08-17T07:41:02.516Z,21.95
2022-08-17T07:43:31.740Z,20.43
2022-08-17T07:46:30.161Z,20.85
2022-08-17T07:49:17.048Z,20.42
2022-08-17T07:51:55.438Z,22.10
2022-08-17T07:54:28.704Z,21.52
2022-08-17T07:56:57.052Z,21.20
2022-08-17T07:59:25.543Z,20.48
2022-08-17T08:02:21.803Z,19.15
2022-08-17T08:05:02.785Z,17.77
2022-08-17T08:07:36.482Z,17.65
2022-08-17T08:10:10.879Z,17.60
2022-08-17T08:12:39.573Z,17.23
2022-08-17T08:15:13.969Z,17.48
2022-08-17T08:17:50.226Z,18.17
2022-08-17T08:20:50.958Z,18.58
2022-08-17T08:23:12.669Z,18.70
2022-08-17T08:25:53.340Z,20.52
2022-08-17T08:28:28.720Z,20.48
2022-08-17T08:30:59.562Z,20.00
2022-08-17T08:33:33.137Z,20.33
2022-08-17T08:36:05.304Z,20.43
2022-08-17T08:38:38.282Z,20.23
2022-08-17T08:41:17.340Z,22.70
2022-08-17T08:43:52.829Z,22.27
2022-08-17T08:46:24.713Z,23.17
2022-08-17T08:49:06.520Z,22.27
2022-08-17T08:51:46.588Z,23.20
2022-08-17T08:54:26.471Z,22.60
2022-08-17T08:57:22.220Z,23.20
2022-08-17T08:59:59.224Z,21.30
2022-08-17T09:02:34.857Z,22.73
2022-08-17T09:05:14.377Z,24.13
2022-08-17T09:07:51.830Z,20.17
2022-08-17T09:10:26.820Z,22.40
2022-08-17T09:12:58.887Z,23.55
2022-08-17T09:15:27.781Z,22.83
2022-08-17T09:18:21.371Z,35.50
2022-08-17T09:20:50.375Z,20.38
2022-08-17T09:23:32.488Z,18.27
2022-08-17T09:26:03.901Z,29.88
2022-08-17T09:28:33.937Z,18.77
2022-08-17T09:31:03.351Z,18.37
2022-08-17T09:33:32.690Z,17.83
2022-08-17T09:36:05.860Z,16.88
2022-08-17T09:38:41.616Z,16.20
2022-08-17T09:41:13.224Z,16.98
2022-08-17T09:43:44.714Z,15.60
2022-08-17T09:46:15.362Z,16.77
2022-08-17T09:48:46.413Z,16.33
2022-08-17T09:51:16.606Z,15.05
2022-08-17T09:53:45.543Z,14.60
2022-08-17T09:56:25.639Z,16.90
2022-08-17T09:59:04.001Z,15.20
2022-08-17T10:01:36.926Z,14.50
2022-08-17T10:04:20.305Z,15.25
2022-08-17T10:06:51.044Z,14.98
2022-08-17T10:09:23.205Z,15.10
2022-08-17T10:12:11.489Z,14.35
2022-08-17T10:14:44.689Z,13.60
2022-08-17T10:17:25.714Z,12.57
2022-08-17T10:19:59.340Z,14.70
2022-08-17T10:22:51.170Z,13.20
2022-08-17T10:25:54.076Z,13.18
2022-08-17T10:28:28.872Z,13.23
2022-08-17T10:31:23.395Z,13.13
2022-08-17T10:33:50.977Z,13.90
2022-08-17T10:36:20.586Z,14.15
2022-08-17T10:38:49.192Z,14.57
2022-08-17T10:41:25.149Z,13.82
2022-08-17T10:44:38.454Z,11.20
2022-08-17T10:46:52.141Z,11.10
2022-08-17T10:49:27.868Z,10.87
2022-08-17T10:51:56.305Z,11.43
2022-08-17T10:54:38.189Z,11.02
2022-08-17T10:57:31.622Z,13.45
2022-08-17T10:59:59.708Z,11.30
2022-08-17T11:02:29.326Z,11.10
2022-08-17T11:05:08.534Z,10.25
2022-08-17T11:07:45.668Z,11.60
2022-08-17T11:10:44.183Z,10.30
2022-08-17T11:13:17.616Z,11.93
2022-08-17T11:15:58.744Z,10.40
2022-08-17T11:18:37.271Z,10.43
2022-08-17T11:21:13.969Z,10.85
2022-08-17T11:24:02.743Z,10.32
2022-08-17T11:26:32.042Z,11.23
2022-08-17T11:29:03.273Z,11.25
2022-08-17T11:31:38.396Z,10.90
2022-08-17T11:34:08.892Z,11.70
2022-08-17T11:36:41.999Z,10.80
2022-08-17T11:39:21.417Z,11.10
2022-08-17T11:41:51.019Z,11.23
2022-08-17T11:44:24.206Z,10.23
2022-08-17T11:47:24.617Z,10.82
2022-08-17T11:50:17.109Z,9.65
2022-08-17T11:52:46.771Z,10.50
2022-08-17T11:55:39.531Z,10.33
2022-08-17T11:58:34.167Z,9.70
2022-08-17T12:01:03.207Z,11.43
2022-08-17T12:03:53.817Z,10.43
2022-08-17T12:06:30.318Z,11.57
2022-08-17T12:09:01.294Z,11.13
2022-08-17T12:12:11.380Z,10.38
2022-08-17T12:14:29.534Z,10.95
2022-08-17T12:17:14.113Z,11.77
2022-08-17T12:19:54.695Z,10.73
2022-08-17T12:22:32.932Z,10.23
2022-08-17T12:25:02.057Z,10.32
2022-08-17T12:27:56.823Z,11.20
2022-08-17T12:30:22.327Z,10.75
2022-08-17T12:32:51.276Z,10.93
2022-08-17T12:35:21.363Z,10.70
2022-08-17T12:37:50.298Z,10.38
2022-08-17T12:40:22.563Z,11.20
2022-08-17T12:42:55.785Z,10.75
2022-08-17T12:45:24.627Z,10.73
2022-08-17T12:48:02.693Z,10.83
2022-08-17T12:50:32.191Z,11.32
2022-08-17T12:53:02.263Z,10.77
2022-08-17T12:55:32.532Z,10.40
2022-08-17T12:58:02.261Z,10.40
2022-08-17T13:00:31.362Z,10.93
2022-08-17T13:03:00.608Z,10.45
2022-08-17T13:05:30.306Z,11.45
2022-08-17T13:07:59.031Z,9.90
2022-08-17T13:10:32.202Z,11.27
2022-08-17T13:13:04.803Z,10.80
2022-08-17T13:15:34.015Z,10.52
2022-08-17T13:18:04.975Z,10.57
2022-08-17T13:20:36.394Z,10.02
2022-08-17T13:23:11.894Z,10.43
2022-08-17T13:25:39.894Z,9.60
2022-08-17T13:28:07.457Z,9.90
2022-08-17T13:30:35.037Z,10.45
2022-08-17T13:33:04.889Z,10.10
2022-08-17T13:35:40.536Z,10.30
2022-08-17T13:38:10.330Z,10.20
2022-08-17T13:40:42.712Z,9.80
2022-08-17T13:43:10.381Z,9.95
2022-08-17T13:45:43.416Z,10.35
2022-08-17T13:48:14.479Z,10.63
2022-08-17T13:50:45.085Z,10.10
2022-08-17T13:53:20.490Z,9.38
2022-08-17T13:55:49.802Z,9.15
2022-08-17T13:58:21.379Z,9.63
2022-08-17T14:00:50.636Z,9.43
2022-08-17T14:03:18.241Z,9.00
2022-08-17T14:05:47.269Z,9.80
2022-08-17T14:08:16.242Z,8.77
2022-08-17T14:10:45.539Z,9.60
2022-08-17T14:13:15.313Z,9.30
2022-08-17T14:15:54.662Z,9.10
2022-08-17T14:18:50.656Z,9.00
2022-08-17T14:21:13.626Z,9.25
2022-08-17T14:23:41.971Z,9.65
2022-08-17T14:26:16.658Z,8.43
2022-08-17T14:28:54.478Z,8.50
2022-08-17T14:31:23.764Z,9.20
2022-08-17T14:33:51.454Z,8.52
2022-08-17T14:36:20.465Z,8.80
2022-08-17T14:38:47.998Z,9.32
2022-08-17T14:41:21.463Z,8.83
2022-08-17T14:43:49.660Z,8.90
2022-08-17T14:46:17.206Z,8.55
2022-08-17T14:48:44.797Z,9.07
2022-08-17T14:51:12.826Z,9.48
2022-08-17T14:53:43.547Z,9.37
2022-08-17T14:56:11.073Z,8.90
2022-08-17T14:58:38.960Z,8.48
2022-08-17T15:01:09.046Z,8.52
2022-08-17T15:03:39.498Z,8.43
2022-08-17T15:06:07.214Z,7.83
2022-08-17T15:08:37.126Z,8.35
2022-08-17T15:11:06.120Z,8.48
2022-08-17T15:13:52.673Z,8.25
2022-08-17T15:16:21.098Z,7.60
2022-08-17T15:18:49.078Z,8.00
2022-08-17T15:21:16.636Z,8.40
2022-08-17T15:23:44.198Z,8.48
2022-08-17T15:26:13.216Z,8.18
2022-08-17T15:28:40.753Z,7.78
2022-08-17T15:31:08.334Z,7.07
2022-08-17T15:33:35.942Z,7.05
2022-08-17T15:36:06.435Z,7.10
2022-08-17T15:38:39.250Z,6.70
2022-08-17T15:41:08.606Z,6.28
2022-08-17T15:43:37.557Z,6.40
2022-08-17T15:46:06.997Z,6.30
2022-08-17T15:48:45.242Z,6.28
2022-08-17T15:51:14.265Z,6.03
2022-08-17T15:53:42.467Z,5.63
2022-08-17T15:56:10.142Z,5.83
2022-08-17T15:58:40.127Z,5.32
2022-08-17T16:01:14.985Z,5.05
2022-08-17T16:04:04.223Z,5.70
2022-08-17T16:06:34.507Z,5.80
2022-08-17T16:09:02.077Z,5.80
2022-08-17T16:11:29.650Z,5.72
2022-08-17T16:13:58.531Z,6.15
2022-08-17T16:16:28.922Z,6.28
2022-08-17T16:18:58.669Z,7.32
2022-08-17T16:21:27.119Z,7.90
2022-08-17T16:23:56.720Z,8.13
2022-08-17T16:26:24.736Z,8.40
2022-08-17T16:28:52.264Z,7.70
2022-08-17T16:31:21.218Z,8.88
2022-08-17T16:34:15.788Z,8.37
2022-08-17T16:36:37.432Z,8.48
2022-08-17T16:39:05.288Z,8.63
2022-08-17T16:41:44.355Z,8.85
2022-08-17T16:44:15.303Z,9.30
2022-08-17T16:46:46.091Z,8.43
2022-08-17T16:49:36.156Z,9.77
2022-08-17T16:52:03.343Z,10.13
2022-08-17T16:54:30.976Z,9.55
2022-08-17T16:56:58.848Z,9.25
2022-08-17T16:59:30.337Z,8.77
2022-08-17T17:02:11.180Z,8.70
2022-08-17T17:04:42.131Z,8.95
2022-08-17T17:07:16.677Z,8.32
2022-08-17T17:09:46.437Z,9.05
2022-08-17T17:12:18.697Z,9.33
2022-08-17T17:15:02.705Z,9.23
2022-08-17T17:17:33.934Z,9.63
2022-08-17T17:20:03.970Z,9.38
2022-08-17T17:22:34.139Z,9.45
2022-08-17T17:25:07.932Z,8.83
2022-08-17T17:27:40.624Z,9.02
2022-08-17T17:30:09.744Z,9.40
2022-08-17T17:32:40.679Z,9.27
2022-08-17T17:35:10.536Z,9.30
2022-08-17T17:37:38.809Z,8.87
2022-08-17T17:40:09.467Z,9.00
2022-08-17T17:42:40.494Z,9.43
2022-08-17T17:45:10.686Z,8.80
2022-08-17T17:47:39.627Z,8.57
2022-08-17T17:50:08.583Z,8.27
2022-08-17T17:52:40.977Z,8.30
2022-08-17T17:55:14.542Z,8.20
2022-08-17T17:57:47.318Z,7.80
2022-08-17T18:00:17.106Z,7.95
2022-08-17T18:02:56.762Z,7.50
2022-08-17T18:05:44.312Z,7.50
2022-08-17T18:08:16.814Z,7.82
2022-08-17T18:10:49.427Z,8.00
2022-08-17T18:13:21.198Z,7.75
2022-08-17T18:15:54.405Z,7.00
2022-08-17T18:18:37.797Z,7.47
2022-08-17T18:21:07.589Z,7.15
2022-08-17T18:23:35.408Z,7.65
2022-08-17T18:26:03.018Z,8.05
2022-08-17T18:28:31.542Z,7.67
2022-08-17T18:31:10.319Z,8.00
2022-08-17T18:33:39.836Z,9.77
2022-08-17T18:36:07.798Z,9.20
2022-08-17T18:38:36.519Z,9.82
2022-08-17T18:41:06.091Z,8.20
2022-08-17T18:43:43.951Z,8.65
2022-08-17T18:46:28.207Z,7.88
2022-08-17T18:48:59.527Z,8.30
2022-08-17T18:51:41.724Z,8.13
2022-08-17T18:54:18.060Z,8.07
2022-08-17T18:56:50.255Z,7.68
2022-08-17T18:59:24.136Z,7.68
2022-08-17T19:02:16.118Z,7.90
2022-08-17T19:05:07.847Z,7.65
2022-08-17T19:07:37.619Z,7.80
2022-08-17T19:10:12.193Z,7.70
2022-08-17T19:12:42.747Z,8.52
2022-08-17T19:15:11.612Z,9.20
2022-08-17T19:17:43.863Z,8.98
2022-08-17T19:20:15.517Z,9.50
2022-08-17T19:22:49.947Z,8.75
2022-08-17T19:25:21.902Z,8.38
2022-08-17T19:27:57.693Z,8.32
2022-08-17T19:30:25.940Z,8.90
2022-08-17T19:32:53.805Z,7.87
2022-08-17T19:35:25.636Z,8.32
2022-08-17T19:37:58.294Z,8.75
2022-08-17T19:40:52.352Z,8.63
2022-08-17T19:43:23.784Z,8.75
2022-08-17T19:45:59.291Z,8.63
2022-08-17T19:48:30.485Z,8.70
2022-08-17T19:51:02.074Z,9.23
2022-08-17T19:54:01.682Z,8.65
2022-08-17T19:56:29.532Z,9.88
2022-08-17T19:58:58.993Z,8.90
2022-08-17T20:01:34.731Z,9.15
2022-08-17T20:04:07.183Z,8.95
2022-08-17T20:06:38.192Z,8.68
2022-08-17T20:09:14.971Z,8.57
2022-08-17T20:11:45.683Z,8.43
2022-08-17T20:14:14.812Z,8.35
2022-08-17T20:16:42.432Z,8.60
2022-08-17T20:19:17.896Z,8.57
2022-08-17T20:21:50.614Z,8.35
2022-08-17T20:24:21.825Z,8.13
2022-08-17T20:26:58.681Z,8.20
2022-08-17T20:29:39.836Z,8.23
2022-08-17T20:32:20.497Z,9.00
2022-08-17T20:34:48.897Z,9.60
2022-08-17T20:37:29.278Z,8.60
2022-08-17T20:40:14.824Z,8.55
2022-08-17T20:42:42.419Z,8.35
2022-08-17T20:45:26.191Z,8.20
2022-08-17T20:48:22.154Z,8.73
2022-08-17T20:50:45.783Z,8.77
2022-08-17T20:53:36.561Z,9.27
2022-08-17T20:56:04.294Z,9.10
2022-08-17T20:58:52.636Z,9.65
2022-08-17T21:01:34.957Z,10.73
2022-08-17T21:04:06.961Z,10.43
2022-08-17T21:06:34.501Z,10.93
2022-08-17T21:09:16.907Z,10.18
2022-08-17T21:12:03.982Z,11.45
2022-08-17T21:14:36.526Z,11.38
2022-08-17T21:17:12.201Z,11.13
2022-08-17T21:20:07.708Z,11.20
2022-08-17T21:22:37.398Z,12.57
2022-08-17T21:25:10.473Z,11.95
2022-08-17T21:27:44.916Z,12.98
2022-08-17T21:30:16.828Z,11.90
2022-08-17T21:32:45.914Z,12.50
2022-08-17T21:35:25.052Z,12.82
2022-08-17T21:37:54.371Z,13.52
2022-08-17T21:40:24.536Z,14.35
2022-08-17T21:42:55.657Z,15.00
2022-08-17T21:45:25.890Z,16.00
2022-08-17T21:48:07.826Z,17.35
2022-08-17T21:50:35.904Z,18.70
2022-08-17T21:53:04.212Z,19.25
2022-08-17T21:55:33.525Z,19.17
2022-08-17T21:58:14.858Z,19.33
2022-08-17T22:00:44.174Z,21.67
2022-08-17T22:03:23.599Z,20.40
2022-08-17T22:05:51.535Z,21.23
2022-08-17T22:08:21.791Z,20.33
2022-08-17T22:10:50.724Z,21.10
2022-08-17T22:13:22.356Z,20.80
2022-08-17T22:15:51.995Z,22.08
2022-08-17T22:18:22.585Z,21.58
2022-08-17T22:20:53.816Z,21.87
2022-08-17T22:23:44.175Z,22.33
2022-08-17T22:26:14.360Z,22.38
2022-08-17T22:28:45.732Z,22.60
2022-08-17T22:31:14.665Z,21.80
2022-08-17T22:33:44.418Z,21.80
2022-08-17T22:36:13.541Z,22.40
2022-08-17T22:38:43.701Z,21.10
2022-08-17T22:41:34.539Z,21.13
2022-08-17T22:44:09.844Z,21.52
2022-08-17T22:46:40.420Z,20.40
2022-08-17T22:49:08.042Z,20.13
2022-08-17T22:51:35.575Z,20.65
2022-08-17T22:54:31.576Z,20.58
2022-08-17T22:57:18.795Z,20.23
2022-08-17T22:59:49.481Z,20.47
2022-08-17T23:02:24.836Z,20.33
2022-08-17T23:04:54.039Z,19.85
2022-08-17T23:07:21.774Z,20.05
2022-08-17T23:09:49.302Z,20.58
2022-08-17T23:12:22.305Z,20.30
2022-08-17T23:14:57.012Z,20.20
2022-08-17T23:17:24.532Z,19.88
2022-08-17T23:19:52.053Z,20.23
2022-08-17T23:22:19.617Z,19.63
2022-08-17T23:24:50.597Z,18.60
2022-08-17T23:27:18.371Z,18.63
2022-08-17T23:29:47.070Z,19.38
2022-08-17T23:32:16.906Z,19.42
2022-08-17T23:34:47.058Z,20.60
2022-08-17T23:37:15.142Z,20.10
2022-08-17T23:39:44.683Z,19.80
2022-08-17T23:42:14.235Z,20.27
2022-08-17T23:44:43.650Z,19.67
2022-08-17T23:47:11.634Z,20.13
2022-08-17T23:49:41.360Z,20.30
2022-08-17T23:52:12.592Z,20.73
2022-08-17T23:54:44.517Z,21.70
2022-08-17T23:57:12.722Z,22.42
2022-08-17T23:59:40.586Z,21.80
